Flight Track Log - Related Links

Times and Time Zones

All times are in EDT time to prevent confusion due to time zone crossing. See the SWA655 flight status page for this flight to view local times or setup timezone preferences in your user account.

Time Position Orientation Groundspeed Altitude Reporting Facility
EDT Latitude Longitude Course Direction KTS MPH feet Rate Location/Type
Thu 02:21:52 PM 33.6500 -117.8833 320° Northwest 138 159 1,900  Level Southern California TRACON
Thu 02:22:52 PM 33.6000 -117.9000 196° South 153 176 3,300 1,185 Climbing Southern California TRACON
Thu 02:23:13 PM 33.5919 -117.8978 167° South 147 169 3,500 2,241 Climbing Los Angeles Center
Thu 02:24:15 PM 33.5289 -117.9308 204° Southwest 242 278 6,400 3,435 Climbing Los Angeles Center
Thu 02:25:17 PM 33.4608 -117.9850 214° Southwest 280 322 10,600 3,648 Climbing Los Angeles Center
Thu 02:26:20 PM 33.4322 -118.0883 252° West 331 381 14,000 3,840 Climbing Los Angeles Center
Thu 02:27:00 PM 34.1368 -118.3348 320° Northwest  Level Estimated
Thu 02:27:22 PM 33.4150 -118.2267 262° West 349 402 18,600  Level Los Angeles Center
Thu 02:28:24 PM 33.4911 -118.2956 323° Northwest 364 419 21,900 2,952 Climbing Los Angeles Center
Thu 02:29:26 PM 33.5939 -118.3278 345° North 378 435 24,700 2,613 Climbing Los Angeles Center
Thu 02:30:28 PM 33.7097 -118.3636 346° North 396 456 27,300 2,371 Climbing Los Angeles Center
Thu 02:31:30 PM 33.8225 -118.3986 346° North 412 474 29,600 2,274 Climbing Los Angeles Center
Thu 02:32:32 PM 33.9417 -118.4361 345° North 427 491 32,000 2,323 Climbing Los Angeles Center
Thu 02:33:34 PM 34.0472 -118.4886 338° Northwest 411 473 34,400 1,872 Climbing Los Angeles Center
Thu 02:34:37 PM 34.1550 -118.5408 338° Northwest 416 479 35,900 1,392 Climbing Los Angeles Center
Thu 02:35:39 PM 34.2642 -118.5944 338° Northwest 422 486 37,300 1,016 Climbing Los Angeles Center
Thu 02:36:41 PM 34.3961 -118.6594 338° Northwest 427 491 38,000 339 Climbing Los Angeles Center
Thu 02:37:43 PM 34.5064 -118.7139 338° Northwest 426 490 38,000  Level Los Angeles Center
Thu 02:38:45 PM 34.6153 -118.7678 338° Northwest 424 488 38,000  Level Los Angeles Center
Thu 02:39:47 PM 34.7244 -118.8231 337° Northwest 426 490 38,000  Level Los Angeles Center
Thu 02:40:49 PM 34.8308 -118.8844 335° Northwest 425 489 38,000  Level Los Angeles Center
Thu 02:41:51 PM 34.9250 -118.9814 320° Northwest 409 471 38,000  Level Los Angeles Center
Thu 02:42:54 PM 35.0139 -119.0678 321° Northwest 410 472 38,000  Level Los Angeles Center
Thu 02:43:56 PM 35.1031 -119.1544 322° Northwest 412 474 38,000  Level Los Angeles Center
Thu 02:44:58 PM 35.2097 -119.2578 322° Northwest 409 471 38,000  Level Los Angeles Center
Thu 02:46:00 PM 35.2989 -119.3464 321° Northwest 412 474 38,000  Level Los Angeles Center
Thu 02:47:02 PM 35.3886 -119.4336 322° Northwest 414 476 38,000  Level Los Angeles Center
Thu 02:48:04 PM 35.4781 -119.5217 321° Northwest 412 474 38,000  Level Los Angeles Center
Thu 02:49:06 PM 35.5675 -119.6122 321° Northwest 416 479 38,000  Level Los Angeles Center
Thu 02:50:08 PM 35.6728 -119.7175 321° Northwest 410 472 38,000  Level Los Angeles Center
Thu 02:51:15 PM 35.7572 -119.8025 321° Northwest 407 468 38,000  Level Oakland Center
Thu 02:52:17 PM 35.8444 -119.8897 321° Northwest 407 468 38,000  Level Oakland Center
Thu 02:53:18 PM 35.9481 -119.9944 321° Northwest 407 468 38,000  Level Oakland Center
Thu 02:54:20 PM 36.0356 -120.0808 321° Northwest 407 468 38,000  Level Oakland Center
Thu 02:55:21 PM 36.1222 -120.1689 321° Northwest 405 466 38,000  Level Oakland Center
Thu 02:56:23 PM 36.2083 -120.2572 320° Northwest 405 466 38,000 -439 Level Oakland Center
Thu 02:57:24 PM 36.2936 -120.3439 321° Northwest 400 460 37,100 -1,707 Descending Oakland Center
Thu 02:58:26 PM 36.3772 -120.4303 320° Northwest 392 451 34,500 -2,419 Descending Oakland Center
Thu 02:59:28 PM 36.4631 -120.5172 321° Northwest 397 457 32,100 -2,390 Descending Oakland Center
Thu 03:00:29 PM 36.5603 -120.6206 320° Northwest 386 444 29,600 -2,195 Descending Oakland Center
Thu 03:01:31 PM 36.6406 -120.7033 320° Northwest 375 432 27,600 -1,951 Descending Oakland Center
Thu 03:02:32 PM 36.7206 -120.7856 321° Northwest 374 430 25,600 -1,951 Descending Oakland Center
Thu 03:03:34 PM 36.7978 -120.8681 319° Northwest 368 423 23,600 -1,951 Descending Oakland Center
Thu 03:04:35 PM 36.8739 -120.9578 317° Northwest 363 418 21,600 -1,805 Descending Oakland Center
Thu 03:05:37 PM 36.9453 -121.0419 317° Northwest 354 407 19,900 -1,854 Descending Oakland Center
Thu 03:06:38 PM 37.0144 -121.1183 319° Northwest 336 387 17,800 -1,951 Descending Oakland Center
Thu 03:07:40 PM 37.0856 -121.2022 317° Northwest 331 381 15,900 -1,756 Descending Oakland Center
Thu 03:08:41 PM 37.1486 -121.2728 318° Northwest 323 372 14,200 -1,707 Descending Oakland Center
Thu 03:09:43 PM 37.2125 -121.3481 317° Northwest 317 365 12,400 -1,854 Descending Oakland Center
Thu 03:10:44 PM 37.2861 -121.4342 317° Northwest 302 348 10,400 -1,463 Descending Oakland Center
Thu 03:11:46 PM 37.3422 -121.5011 317° Northwest 280 322 9,400 -1,056 Descending Oakland Center
Thu 03:12:32 PM 37.3833 -121.5500 317° Northwest 257 296 8,500 -1,075 Descending Northern Cal TRACON
Thu 03:13:32 PM 37.4333 -121.6167 313° West 262 302 7,500 -1,000 Descending Northern Cal TRACON
Thu 03:14:32 PM 37.5000 -121.6833 322° Northwest 264 304 6,500 -750 Descending Northern Cal TRACON
Thu 03:15:32 PM 37.5333 -121.7500 313° West 234 269 6,000 -250 Descending Northern Cal TRACON
Thu 03:16:00 PM 37.5867 -121.7823 313° West  Level FlightAware Approximate
Thu 03:16:32 PM 37.5333 -121.8167 270° West 221 254 6,000  Level Northern Cal TRACON
Thu 03:17:32 PM 37.5500 -121.9000 284° West 221 254 5,200 -750 Descending Northern Cal TRACON
Thu 03:18:32 PM 37.5500 -121.9667 270° West 217 250 4,500 -750 Descending Northern Cal TRACON
Thu 03:19:32 PM 37.5833 -122.0333 302° West 208 239 3,700 -850 Descending Northern Cal TRACON
Thu 03:20:32 PM 37.6167 -122.0833 310° West 166 191 2,800 -842 Descending Northern Cal TRACON
Thu 03:21:26 PM 37.6333 -122.1167 302° West 136 157 2,100 -742 Descending Northern Cal TRACON
Thu 03:22:01 PM 37.6461 -122.1314 318° Northwest 156 180 1,700 -688 Descending Oakland Center
Thu 03:23:02 PM 37.6675 -122.1642 310° West 137 158 1,000 -634 Descending Oakland Center
Thu 03:24:04 PM 37.6894 -122.1964 311° West 127 146 400 9,268 Descending Oakland Center
Thu 03:25:05 PM 37.7094 -122.2258 311° West 119 137 20,000 19,279 Climbing Oakland Center
Thu 03:27:00 PM 37.7167 -122.2167 270° West  Level FlightAware Approximate

Login

Don't have an account? Register now (free) for customized features, flight alerts, and more!